Sibenik, Croatia

7:43 PM CEST on July 28, 2015 (GMT +0200)
Grad Šibenik | | Change Station
CLOSE
Current Station
Personal Weather Station
Location: Šibenik, ŠIBENSKO-KNINSKA žUPANIJA
Elevation: 161 ft
Nearby Weather Stations

Elev 161 ft 43.72 °N, 15.91 °E | Updated 3 minutes ago

Clear
Clear
90.7 °F
Feels Like 93 °F
N
2.5
Wind Variable Wind from SSW
Gusts 6.3 mph

Today
High -- | Low -- °F
--% Chance of Precip.
Yesterday
High -- | Low -- °F
Precip. -- in
5:40 AM 8:24 PM
Waxing Gibbous, 90% visible
Pressure 29.74 in
Visibility -9999.0 miles
Clouds
Heat Index 93 °F
Dew Point 66 °F
Humidity 44%
Rainfall 0.00 in
Snow Depth Not available.
UV Not available.
Pollen Not available.
Air Quality Not available.
Flu Activity Not available.
METAR LDSP 281730Z 24004KT CAVOK 31/16 Q1007 NOSIG

More Conditions Fewer Conditions

Pressure 29.74 in
Visibility -9999.0 miles
Clouds
Heat Index 93 °F
Dew Point 66 °F
Humidity 44%
Rainfall 0.00 in
Snow Depth Not available.
UV Not available.
Pollen Not available.
Air Quality Not available.
Flu Activity Not available.
METAR LDSP 281730Z 24004KT CAVOK 31/16 Q1007 NOSIG

More Conditions Fewer Conditions

10-Day Weather Forecast

×

Almanac

Astronomy

Jul. 28, 2015 Rise Set
Actual Time
Civil Twilight
Nautical Twilight
Astronomical Twilight
Moon
Length of Visible Light
Length of Day
Tomorrow will be .
, % of the Moon is Illuminated

Today's Extremes

Country Highs Country Lows

Community

WunderPhotos

Upload Photos

1,841,900 photos uploaded!

WunderBlogs® & News

Nearby

Air Quality

  Air Quality AQ Index Pollutant
Not available.

Snow Depth

Station Depth Elevation

Earthquake Activity

City Distance Mag. Time & Date
Minimum magnitude displayed is 2.5.

Coastal Water Temperatures

Place Temperature

Stations

Nearby Weather Stations

Station Location Temp. Windchill Dew Point Humidity Wind Precip. Elev Updated Type